Time;durP1;ratioP1;P1;durP2;ratioP2;P2;SDS_P1;SDS_P2;PMS_P1;PMS_P2;Temp;Humidity;BMP_temperature;BMP_pressure;BME280_temperature;BME280_humidity;BME280_pressure;Samples;Min_cycle;Max_cycle;Signal;HPM_P1;HPM_P2
2023/06/25 00:01:34;;;;;;;8.00;5.50;;;18.00;99.90;;;;;;5075460;28;20051;-87
2023/06/25 00:04:00;;;;;;;11.38;6.18;;;18.10;99.90;;;;;;5075835;28;20024;-88
2023/06/25 00:06:25;;;;;;;11.55;6.15;;;18.00;99.90;;;;;;5080020;28;20028;-88
2023/06/25 00:08:51;;;;;;;7.07;5.20;;;18.00;99.90;;;;;;5074280;28;20484;-88
2023/06/25 00:11:16;;;;;;;9.38;5.82;;;18.00;99.90;;;;;;5075643;28;20025;-87
2023/06/25 00:13:42;;;;;;;11.05;6.65;;;18.00;99.90;;;;;;5074106;28;20032;-88
2023/06/25 00:16:08;;;;;;;12.25;5.30;;;18.00;99.90;;;;;;5050966;28;20272;-87
2023/06/25 00:18:34;;;;;;;14.10;5.95;;;18.00;99.90;;;;;;5066524;28;20028;-87
2023/06/25 00:21:05;;;;;;;15.13;6.13;;;18.00;99.90;;;;;;5072427;28;20103;-88
2023/06/25 00:23:30;;;;;;;6.70;5.70;;;18.00;99.90;;;;;;5063625;28;20229;-88
2023/06/25 00:25:56;;;;;;;6.38;5.15;;;18.00;99.90;;;;;;5080292;28;20040;-87
2023/06/25 00:28:22;;;;;;;13.43;5.88;;;18.00;99.90;;;;;;5071244;28;20024;-88
2023/06/25 00:30:47;;;;;;;7.43;5.80;;;18.00;99.90;;;;;;5076118;28;20032;-88
2023/06/25 00:33:13;;;;;;;6.00;5.40;;;18.00;99.90;;;;;;5074762;28;20040;-89
2023/06/25 00:35:50;;;;;;;7.97;5.32;;;17.90;99.90;;;;;;5052008;28;20363;-88
2023/06/25 00:38:16;;;;;;;8.95;5.55;;;17.90;99.90;;;;;;5064687;28;20354;-89
2023/06/25 00:40:42;;;;;;;6.03;4.95;;;17.80;99.90;;;;;;5061043;28;20477;-89
2023/06/25 00:43:08;;;;;;;7.43;4.95;;;17.80;99.90;;;;;;5059993;28;20074;-89
2023/06/25 00:45:37;;;;;;;5.93;4.80;;;17.80;99.90;;;;;;5062732;28;20025;-88
2023/06/25 00:48:03;;;;;;;5.90;4.70;;;17.70;99.90;;;;;;5072612;28;20819;-89
2023/06/25 00:50:28;;;;;;;5.47;4.68;;;17.70;99.90;;;;;;5059442;28;20132;-89
2023/06/25 00:52:57;;;;;;;8.07;5.35;;;17.70;99.90;;;;;;5063115;28;20040;-89
2023/06/25 00:55:22;;;;;;;7.70;5.85;;;17.60;99.90;;;;;;5064201;28;20093;-88
2023/06/25 00:57:48;;;;;;;9.60;5.65;;;17.60;99.90;;;;;;5069243;28;20024;-89
2023/06/25 01:00:14;;;;;;;6.57;5.78;;;17.50;99.90;;;;;;5066290;28;20089;-88
2023/06/25 01:02:49;;;;;;;8.07;5.75;;;17.40;99.90;;;;;;5067653;28;20063;-88
2023/06/25 01:05:26;;;;;;;7.77;5.97;;;17.30;99.90;;;;;;5057619;28;20044;-89
2023/06/25 01:07:57;;;;;;;7.30;5.65;;;17.20;99.90;;;;;;5072295;28;20886;-89
2023/06/25 01:10:24;;;;;;;12.13;5.82;;;17.10;99.90;;;;;;5066986;28;20060;-88
2023/06/25 01:12:50;;;;;;;7.55;5.90;;;17.10;99.90;;;;;;5008754;28;20558;-88
2023/06/25 01:15:15;;;;;;;7.47;6.38;;;17.00;99.90;;;;;;4979879;28;20034;-88
2023/06/25 01:17:41;;;;;;;6.78;5.47;;;16.90;99.90;;;;;;4978503;28;20076;-85
2023/06/25 01:20:11;;;;;;;9.85;6.47;;;16.90;99.90;;;;;;4983813;28;20379;-87
2023/06/25 01:22:38;;;;;;;14.40;7.85;;;16.90;99.90;;;;;;4984444;28;20030;-86
2023/06/25 01:25:05;;;;;;;8.10;6.25;;;16.90;99.90;;;;;;4983373;28;20053;-87
2023/06/25 01:27:33;;;;;;;11.35;6.40;;;17.00;99.90;;;;;;4984469;28;20030;-87
2023/06/25 01:29:59;;;;;;;12.60;5.78;;;17.20;99.90;;;;;;4979218;28;20030;-88
2023/06/25 01:32:25;;;;;;;14.20;6.25;;;17.40;99.90;;;;;;4982857;28;20031;-88
2023/06/25 01:34:50;;;;;;;8.77;6.82;;;17.50;99.90;;;;;;4981613;28;20038;-87
2023/06/25 01:37:17;;;;;;;10.45;6.35;;;17.60;99.90;;;;;;4985251;28;20402;-88
2023/06/25 01:39:50;;;;;;;14.82;6.60;;;17.70;99.90;;;;;;4991759;22;20123;-86
2023/06/25 01:42:16;;;;;;;10.50;4.97;;;17.70;99.90;;;;;;4944228;28;20035;-88
2023/06/25 01:44:41;;;;;;;9.38;6.10;;;17.80;99.90;;;;;;4941747;28;20416;-89
2023/06/25 01:47:07;;;;;;;10.00;6.60;;;17.80;99.90;;;;;;4942799;29;20027;-88
2023/06/25 01:49:33;;;;;;;8.52;5.68;;;17.90;99.90;;;;;;4944290;29;20015;-89
2023/06/25 01:51:59;;;;;;;11.20;6.72;;;17.80;99.90;;;;;;4941101;28;20028;-88
2023/06/25 01:54:25;;;;;;;8.50;5.70;;;17.90;99.90;;;;;;4944362;28;20042;-88
2023/06/25 01:56:50;;;;;;;10.85;5.63;;;17.80;99.90;;;;;;4945457;28;20035;-88
2023/06/25 01:59:16;;;;;;;11.82;5.88;;;17.80;99.90;;;;;;4945163;28;20381;-88
2023/06/25 02:01:42;;;;;;;9.77;6.28;;;17.80;99.90;;;;;;4946163;28;20041;-88
2023/06/25 02:04:07;;;;;;;7.97;5.57;;;17.80;99.90;;;;;;4947771;28;20487;-88
2023/06/25 02:06:33;;;;;;;21.77;6.57;;;17.80;99.90;;;;;;4941785;28;20038;-88
2023/06/25 02:08:58;;;;;;;11.45;5.70;;;17.80;99.90;;;;;;4946328;28;20023;-87
2023/06/25 02:11:27;;;;;;;8.20;5.57;;;17.80;99.90;;;;;;4939010;28;20392;-85
2023/06/25 02:13:52;;;;;;;12.77;6.25;;;17.80;99.90;;;;;;4943523;29;20057;-85
2023/06/25 02:16:18;;;;;;;11.27;6.72;;;17.80;99.90;;;;;;4937449;29;20476;-88
2023/06/25 02:18:44;;;;;;;9.75;6.47;;;17.80;99.90;;;;;;4941800;28;20839;-88
2023/06/25 02:21:09;;;;;;;13.43;6.50;;;17.80;99.90;;;;;;4945138;28;20042;-88
2023/06/25 02:23:35;;;;;;;11.15;6.35;;;17.80;99.90;;;;;;4940950;28;20043;-88
2023/06/25 02:26:00;;;;;;;12.63;5.97;;;17.80;99.90;;;;;;4935048;28;20016;-88
2023/06/25 02:28:26;;;;;;;10.30;6.78;;;17.70;99.90;;;;;;4941951;28;20427;-89
2023/06/25 02:30:52;;;;;;;8.82;6.00;;;17.80;99.90;;;;;;4943509;28;20038;-89
2023/06/25 02:33:17;;;;;;;11.55;5.55;;;17.80;99.90;;;;;;4943330;29;20388;-88
2023/06/25 02:35:43;;;;;;;7.57;6.03;;;17.90;99.90;;;;;;4949369;28;20031;-86
2023/06/25 02:38:09;;;;;;;7.93;6.00;;;17.90;99.90;;;;;;4935570;28;20031;-87
2023/06/25 02:40:35;;;;;;;16.48;6.10;;;17.90;99.90;;;;;;5015327;28;20048;-88
2023/06/25 02:43:01;;;;;;;8.90;5.35;;;17.90;99.90;;;;;;5047016;28;20024;-88
2023/06/25 02:45:27;;;;;;;5.20;4.60;;;18.00;99.90;;;;;;5043824;28;20059;-89
2023/06/25 02:47:53;;;;;;;7.30;5.35;;;18.00;99.90;;;;;;5041805;28;20029;-88
2023/06/25 02:50:18;;;;;;;12.02;5.30;;;18.00;99.90;;;;;;5040338;28;20079;-88
2023/06/25 02:52:44;;;;;;;12.13;5.05;;;18.00;99.90;;;;;;5023956;28;20025;-88
2023/06/25 02:55:13;;;;;;;10.82;5.60;;;18.10;99.90;;;;;;5023235;28;20078;-87
2023/06/25 02:57:38;;;;;;;7.28;5.25;;;18.10;99.90;;;;;;5042651;28;20284;-89
2023/06/25 03:00:07;;;;;;;8.93;5.03;;;18.10;99.90;;;;;;5034016;28;20017;-87
2023/06/25 03:02:34;;;;;;;7.05;4.80;;;18.10;99.90;;;;;;5037053;28;20026;-89
2023/06/25 03:05:00;;;;;;;10.48;5.20;;;18.20;99.90;;;;;;5028196;28;20134;-90
2023/06/25 03:07:25;;;;;;;8.27;4.97;;;18.20;99.90;;;;;;5039114;28;20536;-89
2023/06/25 03:09:53;;;;;;;5.45;4.72;;;18.20;99.90;;;;;;5041514;28;20041;-88
2023/06/25 03:12:19;;;;;;;6.63;5.10;;;18.20;99.90;;;;;;5041237;28;20033;-88
2023/06/25 03:14:45;;;;;;;12.77;5.30;;;18.20;99.90;;;;;;5034244;28;20534;-87
2023/06/25 03:17:10;;;;;;;8.25;4.75;;;18.20;99.90;;;;;;5032577;28;20501;-90
2023/06/25 03:19:39;;;;;;;10.60;5.43;;;18.30;99.90;;;;;;5044525;28;20021;-89
2023/06/25 03:22:05;;;;;;;9.10;5.13;;;18.20;99.90;;;;;;5038112;28;20037;-90
2023/06/25 03:24:30;;;;;;;6.65;4.63;;;18.20;99.90;;;;;;5042286;28;20486;-89
2023/06/25 03:26:56;;;;;;;8.00;5.75;;;18.20;99.90;;;;;;5043529;28;20028;-89
2023/06/25 03:29:22;;;;;;;9.20;5.88;;;18.20;99.90;;;;;;5016506;28;20050;-87
2023/06/25 03:31:50;;;;;;;7.55;4.88;;;18.10;99.90;;;;;;5041290;28;20037;-90
2023/06/25 03:34:16;;;;;;;6.97;5.13;;;18.20;99.90;;;;;;5043973;28;20575;-88
2023/06/25 03:36:45;;;;;;;7.38;5.90;;;18.20;99.90;;;;;;5039434;28;20024;-90
2023/06/25 03:39:10;;;;;;;10.57;5.43;;;18.20;99.90;;;;;;5035148;28;20048;-89
2023/06/25 03:41:36;;;;;;;15.70;5.85;;;18.20;99.90;;;;;;5028403;28;20027;-88
2023/06/25 03:44:02;;;;;;;9.98;5.22;;;18.20;99.90;;;;;;5049734;28;20054;-90
2023/06/25 03:46:27;;;;;;;10.25;5.60;;;18.30;99.90;;;;;;5043639;28;20040;-90
2023/06/25 03:48:52;;;;;;;10.70;5.13;;;18.30;99.90;;;;;;5021590;28;20075;-89
2023/06/25 03:51:18;;;;;;;9.95;4.97;;;18.30;99.90;;;;;;5042073;28;20569;-89
2023/06/25 03:53:47;;;;;;;10.98;5.50;;;18.30;99.90;;;;;;5039601;28;20434;-88
2023/06/25 03:56:12;;;;;;;7.95;5.10;;;18.30;99.90;;;;;;5041510;28;20458;-91
2023/06/25 03:58:59;;;;;;;12.23;6.25;;;18.40;99.90;;;;;;5039734;28;20064;-90
2023/06/25 04:01:25;;;;;;;9.02;5.65;;;18.50;99.90;;;;;;5018200;28;20045;-91
2023/06/25 04:03:50;;;;;;;8.77;4.90;;;18.50;99.90;;;;;;5040325;28;20075;-91
2023/06/25 04:06:19;;;;;;;11.45;5.65;;;18.50;99.90;;;;;;5039823;28;20029;-90
2023/06/25 04:08:45;;;;;;;10.20;5.70;;;18.60;99.90;;;;;;5042272;28;20428;-89
2023/06/25 04:11:10;;;;;;;7.45;5.60;;;18.60;99.90;;;;;;5043162;28;20025;-90
2023/06/25 04:13:36;;;;;;;6.20;5.38;;;18.60;99.90;;;;;;5040338;28;20382;-90
2023/06/25 04:16:01;;;;;;;6.40;4.85;;;18.70;99.90;;;;;;5039532;28;20025;-89
2023/06/25 04:18:27;;;;;;;10.38;5.68;;;18.80;99.90;;;;;;5039294;28;20288;-89
2023/06/25 04:20:52;;;;;;;8.75;5.68;;;18.70;99.90;;;;;;5044289;28;20351;-89
2023/06/25 04:23:18;;;;;;;15.07;5.75;;;18.80;99.90;;;;;;5046775;28;20037;-89
2023/06/25 04:25:47;;;;;;;8.05;4.72;;;18.80;99.90;;;;;;5040961;28;20044;-86
2023/06/25 04:28:16;;;;;;;11.57;5.38;;;18.90;99.90;;;;;;5034076;28;20020;-89
2023/06/25 04:30:42;;;;;;;7.03;5.22;;;18.90;99.90;;;;;;5044246;28;20075;-90
2023/06/25 04:33:10;;;;;;;9.07;5.07;;;18.90;99.90;;;;;;5040399;28;20021;-91
2023/06/25 04:35:36;;;;;;;8.88;5.40;;;18.90;99.90;;;;;;5041242;28;20484;-90
2023/06/25 04:38:02;;;;;;;6.90;5.43;;;19.00;99.90;;;;;;5041963;28;20056;-91
2023/06/25 04:40:28;;;;;;;9.82;5.13;;;19.00;99.90;;;;;;5043215;28;20103;-90
2023/06/25 04:42:56;;;;;;;9.23;5.50;;;19.00;99.90;;;;;;5036862;28;20070;-90
2023/06/25 04:45:22;;;;;;;7.82;5.80;;;19.10;99.90;;;;;;5029110;28;20413;-88
2023/06/25 04:47:48;;;;;;;6.38;4.78;;;19.10;99.90;;;;;;5048703;28;20115;-90
2023/06/25 04:50:20;;;;;;;7.95;5.00;;;19.10;99.90;;;;;;5043618;28;20034;-89
2023/06/25 04:52:45;;;;;;;6.97;5.63;;;19.20;99.90;;;;;;5046399;28;20045;-91
2023/06/25 04:55:11;;;;;;;7.03;4.25;;;19.20;99.90;;;;;;5044345;28;20471;-91
2023/06/25 04:57:37;;;;;;;9.77;5.55;;;19.20;99.90;;;;;;5026011;28;20029;-89
2023/06/25 05:00:04;;;;;;;14.18;5.22;;;19.20;99.90;;;;;;5019433;28;20035;-90
2023/06/25 05:02:30;;;;;;;10.60;5.13;;;19.30;99.90;;;;;;5043771;28;20029;-88
2023/06/25 05:04:55;;;;;;;8.77;4.78;;;19.30;99.90;;;;;;5041761;28;20041;-89
2023/06/25 05:07:24;;;;;;;9.02;5.03;;;19.40;99.90;;;;;;5044819;28;20025;-90
2023/06/25 05:09:49;;;;;;;6.72;5.07;;;19.40;99.90;;;;;;5037438;28;20040;-89
2023/06/25 05:12:15;;;;;;;9.68;5.05;;;19.50;99.90;;;;;;5041127;28;20351;-89
2023/06/25 05:14:40;;;;;;;5.85;5.18;;;19.50;99.90;;;;;;5039621;28;20028;-91
2023/06/25 05:17:06;;;;;;;5.13;4.63;;;19.60;99.90;;;;;;5043693;28;20028;-91
2023/06/25 05:19:32;;;;;;;10.40;4.95;;;19.60;99.90;;;;;;5045197;28;20128;-90
2023/06/25 05:21:57;;;;;;;8.27;4.80;;;19.70;99.90;;;;;;5041502;28;20233;-90
2023/06/25 05:24:23;;;;;;;9.50;5.15;;;19.80;99.90;;;;;;5042780;28;20037;-91
2023/06/25 05:26:48;;;;;;;9.98;4.95;;;19.80;99.90;;;;;;5027258;28;20025;-90
2023/06/25 05:29:14;;;;;;;13.07;5.18;;;19.80;99.90;;;;;;5041278;28;20105;-89
2023/06/25 05:31:40;;;;;;;5.80;4.43;;;19.90;99.90;;;;;;5039464;28;20025;-90
2023/06/25 05:34:05;;;;;;;19.10;5.10;;;20.00;99.90;;;;;;5048722;28;20025;-89
2023/06/25 05:36:31;;;;;;;7.88;5.00;;;20.00;99.90;;;;;;5046935;28;20076;-91
2023/06/25 05:38:57;;;;;;;10.02;5.10;;;20.00;99.90;;;;;;5039331;28;20041;-90
2023/06/25 05:41:25;;;;;;;7.45;4.97;;;20.10;99.90;;;;;;5039270;28;20022;-90
2023/06/25 05:43:51;;;;;;;9.77;5.35;;;20.20;99.90;;;;;;5036028;28;20067;-89
2023/06/25 05:46:16;;;;;;;7.85;5.18;;;20.20;99.90;;;;;;5032512;28;20474;-90
2023/06/25 05:48:44;;;;;;;6.40;4.85;;;20.10;99.90;;;;;;5040514;28;20159;-90
2023/06/25 05:51:09;;;;;;;13.02;6.38;;;20.00;99.90;;;;;;5039478;28;20367;-90
2023/06/25 05:53:40;;;;;;;10.77;6.15;;;20.00;99.90;;;;;;5027342;28;20021;-89
2023/06/25 05:56:06;;;;;;;10.23;6.00;;;19.90;99.90;;;;;;5039830;28;20478;-89
2023/06/25 05:58:33;;;;;;;10.43;6.00;;;19.80;99.90;;;;;;5022852;28;20071;-90
2023/06/25 06:01:01;;;;;;;6.72;5.18;;;19.80;99.90;;;;;;5043979;28;20030;-90
2023/06/25 06:03:27;;;;;;;5.30;4.78;;;19.70;99.90;;;;;;5041035;28;20028;-91
2023/06/25 06:05:54;;;;;;;9.30;6.30;;;19.70;99.90;;;;;;5044734;28;20032;-91
2023/06/25 06:08:19;;;;;;;7.38;5.82;;;19.70;99.90;;;;;;5045148;28;20559;-91
2023/06/25 06:10:45;;;;;;;6.70;5.30;;;19.70;99.90;;;;;;5044092;28;20025;-91
2023/06/25 06:13:10;;;;;;;9.20;5.60;;;19.60;99.90;;;;;;5047096;28;20470;-92
2023/06/25 06:15:36;;;;;;;12.48;5.60;;;19.70;99.90;;;;;;5038980;28;20039;-92
2023/06/25 06:18:01;;;;;;;7.05;5.15;;;19.60;99.90;;;;;;5041684;28;20033;-91
2023/06/25 06:20:27;;;;;;;10.20;5.85;;;19.70;99.90;;;;;;5039406;28;20013;-91
2023/06/25 06:22:53;;;;;;;8.15;5.53;;;19.70;99.90;;;;;;5032989;28;20430;-91
2023/06/25 06:25:18;;;;;;;10.88;5.13;;;19.80;99.90;;;;;;5031704;28;20044;-91
2023/06/25 06:27:44;;;;;;;6.68;5.05;;;19.80;99.90;;;;;;5039664;28;20059;-91
2023/06/25 06:30:10;;;;;;;8.43;5.40;;;19.90;99.90;;;;;;5033792;28;20033;-91
2023/06/25 06:32:36;;;;;;;15.38;6.30;;;19.90;99.90;;;;;;5042334;28;20470;-91
2023/06/25 06:35:01;;;;;;;7.70;5.03;;;20.00;99.90;;;;;;5042288;28;20040;-91
2023/06/25 06:37:27;;;;;;;6.05;5.43;;;20.00;99.90;;;;;;5042202;28;20113;-91
2023/06/25 06:39:52;;;;;;;6.20;5.10;;;20.10;99.90;;;;;;5043129;28;20049;-92
2023/06/25 06:42:19;;;;;;;6.90;5.38;;;20.20;99.90;;;;;;5038451;28;20017;-91
2023/06/25 06:44:45;;;;;;;6.50;5.70;;;20.20;99.90;;;;;;5038697;28;20047;-92
2023/06/25 06:47:10;;;;;;;9.35;5.40;;;20.20;99.90;;;;;;5000003;28;20021;-92
2023/06/25 06:49:36;;;;;;;9.23;5.65;;;20.30;99.90;;;;;;5041155;28;20029;-92
2023/06/25 06:52:01;;;;;;;11.77;5.60;;;20.30;99.90;;;;;;5043812;28;20041;-91
2023/06/25 06:54:27;;;;;;;10.80;5.57;;;20.40;99.90;;;;;;5041870;28;20041;-91
2023/06/25 06:56:52;;;;;;;16.25;5.63;;;20.40;99.90;;;;;;5031845;28;20029;-91
2023/06/25 06:59:18;;;;;;;8.32;5.45;;;20.50;99.90;;;;;;5032922;28;20045;-92
2023/06/25 07:01:43;;;;;;;6.97;5.47;;;20.50;99.90;;;;;;5036610;28;20025;-92
2023/06/25 07:04:12;;;;;;;9.70;6.20;;;20.60;99.90;;;;;;5035963;28;20558;-91
2023/06/25 07:06:37;;;;;;;7.90;6.13;;;20.80;99.90;;;;;;5046044;28;20044;-92
2023/06/25 07:09:03;;;;;;;6.15;5.53;;;20.90;99.90;;;;;;5034440;28;20025;-92
2023/06/25 07:11:28;;;;;;;11.10;6.13;;;20.90;99.90;;;;;;5043403;28;20021;-91
2023/06/25 07:13:54;;;;;;;10.27;6.30;;;20.90;99.90;;;;;;5047072;28;20429;-91
2023/06/25 07:16:19;;;;;;;6.53;5.38;;;21.00;99.90;;;;;;5020289;28;20021;-91
2023/06/25 07:18:45;;;;;;;11.50;6.40;;;21.00;99.90;;;;;;5039929;28;20036;-92
2023/06/25 07:21:10;;;;;;;10.32;5.13;;;21.10;99.90;;;;;;5044176;28;20032;-92
2023/06/25 07:23:36;;;;;;;7.18;5.30;;;21.10;99.90;;;;;;5034330;28;20501;-92
2023/06/25 07:26:03;;;;;;;6.97;5.60;;;21.10;99.90;;;;;;5041594;28;20386;-92
2023/06/25 07:28:29;;;;;;;8.90;5.65;;;21.10;99.90;;;;;;5009549;28;20464;-92
2023/06/25 07:30:54;;;;;;;9.85;5.35;;;21.20;99.90;;;;;;5038274;28;20150;-92
2023/06/25 07:33:20;;;;;;;8.70;5.30;;;21.20;99.90;;;;;;5033176;28;20144;-92
2023/06/25 07:35:45;;;;;;;6.97;5.55;;;21.20;99.90;;;;;;5032984;28;20022;-91
2023/06/25 07:38:11;;;;;;;6.93;5.15;;;21.30;99.90;;;;;;5035299;28;20029;-92
2023/06/25 07:40:36;;;;;;;10.68;6.90;;;21.30;99.90;;;;;;5039860;28;20056;-92
2023/06/25 07:43:03;;;;;;;7.93;5.18;;;21.40;99.90;;;;;;5017945;28;20032;-92
2023/06/25 07:45:29;;;;;;;10.32;5.53;;;21.40;99.90;;;;;;5032086;28;20064;-92
2023/06/25 07:47:55;;;;;;;6.50;5.63;;;21.50;99.90;;;;;;5032518;28;20103;-92
2023/06/25 07:50:21;;;;;;;8.20;4.93;;;21.50;99.90;;;;;;5039619;28;20477;-92
2023/06/25 07:52:47;;;;;;;5.07;4.57;;;21.60;99.90;;;;;;5035971;28;20075;-91
2023/06/25 07:55:12;;;;;;;6.20;5.25;;;21.60;99.90;;;;;;5040796;28;20061;-91
2023/06/25 07:57:38;;;;;;;6.65;5.60;;;21.70;99.90;;;;;;5036749;28;20032;-92
2023/06/25 08:00:05;;;;;;;7.88;5.30;;;21.70;99.90;;;;;;5017010;28;20017;-92
2023/06/25 08:02:31;;;;;;;9.50;5.78;;;21.80;99.90;;;;;;5040579;28;20032;-92
2023/06/25 08:04:57;;;;;;;8.52;5.82;;;21.80;99.90;;;;;;5046462;28;20059;-92
2023/06/25 08:07:22;;;;;;;8.52;6.00;;;21.90;99.90;;;;;;5048000;28;20017;-92
2023/06/25 08:09:48;;;;;;;12.68;5.72;;;22.00;99.90;;;;;;5045101;28;20083;-92
2023/06/25 08:12:16;;;;;;;9.02;5.43;;;22.00;99.90;;;;;;5046043;28;20470;-93
2023/06/25 08:14:42;;;;;;;6.82;5.30;;;22.10;99.90;;;;;;5019925;28;20046;-93
2023/06/25 08:17:07;;;;;;;7.75;5.00;;;22.10;99.90;;;;;;5040415;28;20075;-93
2023/06/25 08:19:33;;;;;;;9.63;4.85;;;22.20;99.90;;;;;;5016773;28;20037;-92
2023/06/25 08:21:59;;;;;;;9.23;5.05;;;22.20;99.90;;;;;;5040507;28;20021;-92
2023/06/25 08:24:25;;;;;;;5.40;4.07;;;22.30;99.90;;;;;;5038576;28;20032;-92
2023/06/25 08:26:50;;;;;;;7.75;5.15;;;22.40;99.90;;;;;;5042398;28;20163;-92
2023/06/25 08:29:16;;;;;;;6.28;4.78;;;22.50;99.90;;;;;;5043303;28;20079;-93
2023/06/25 08:31:41;;;;;;;7.15;5.13;;;22.60;99.90;;;;;;5044974;28;20440;-93
2023/06/25 08:34:07;;;;;;;6.68;4.72;;;22.70;99.90;;;;;;5023343;28;20025;-92
2023/06/25 08:36:33;;;;;;;5.95;4.38;;;22.60;99.90;;;;;;5041655;28;20029;-93
2023/06/25 08:38:58;;;;;;;6.95;4.47;;;22.60;99.90;;;;;;5019293;28;20401;-90
2023/06/25 08:41:26;;;;;;;10.43;5.47;;;22.70;99.90;;;;;;5046641;28;20024;-93
2023/06/25 08:43:53;;;;;;;5.10;4.15;;;22.80;99.90;;;;;;5039914;28;20044;-93
2023/06/25 08:46:20;;;;;;;5.10;4.25;;;22.80;99.90;;;;;;5043189;28;20390;-93
2023/06/25 08:48:46;;;;;;;8.32;4.03;;;22.90;99.90;;;;;;5040748;28;20025;-93
2023/06/25 08:51:21;;;;;;;5.00;4.20;;;22.90;99.90;;;;;;5045837;28;20473;-92
2023/06/25 08:53:47;;;;;;;6.00;4.60;;;23.00;99.90;;;;;;5030668;28;20060;-92
2023/06/25 08:56:15;;;;;;;6.35;4.03;;;23.30;99.90;;;;;;5026172;28;20466;-94
2023/06/25 08:58:41;;;;;;;5.72;4.28;;;23.40;99.90;;;;;;5022261;28;20119;-93
2023/06/25 09:01:06;;;;;;;4.68;4.20;;;23.50;99.90;;;;;;5024424;28;20108;-93
2023/06/25 09:03:32;;;;;;;9.15;4.53;;;23.40;99.90;;;;;;5041573;28;20037;-94
2023/06/25 09:05:57;;;;;;;8.13;4.60;;;23.20;99.90;;;;;;5043543;28;20028;-93
2023/06/25 09:08:25;;;;;;;6.22;4.45;;;23.20;99.90;;;;;;5036161;28;20028;-94
2023/06/25 09:10:52;;;;;;;5.32;4.18;;;23.20;99.90;;;;;;5041944;28;20044;-88
2023/06/25 09:13:25;;;;;;;9.82;4.30;;;23.30;99.90;;;;;;5040578;28;20036;-93
2023/06/25 09:15:53;;;;;;;6.70;4.57;;;23.40;99.90;;;;;;5036095;28;20079;-92
2023/06/25 09:18:21;;;;;;;4.78;4.25;;;23.30;99.90;;;;;;5026607;28;20028;-92
2023/06/25 09:20:48;;;;;;;6.78;4.45;;;23.20;99.90;;;;;;5045672;28;20078;-92
2023/06/25 09:23:24;;;;;;;8.30;5.03;;;23.10;99.90;;;;;;5040323;28;20057;-92
2023/06/25 09:25:50;;;;;;;6.88;4.55;;;23.10;99.90;;;;;;5043771;28;20393;-93
2023/06/25 09:28:16;;;;;;;8.48;5.07;;;22.90;99.90;;;;;;5043191;28;20025;-91
2023/06/25 09:30:42;;;;;;;7.45;4.13;;;22.90;99.90;;;;;;5042775;28;20144;-93
2023/06/25 09:33:10;;;;;;;4.72;4.05;;;22.80;99.90;;;;;;5041838;28;20040;-92
2023/06/25 09:35:36;;;;;;;6.50;4.68;;;22.80;99.90;;;;;;5043627;28;20021;-92
2023/06/25 09:38:02;;;;;;;8.20;4.38;;;22.70;99.90;;;;;;5040424;28;20033;-92
2023/06/25 09:40:28;;;;;;;7.50;4.47;;;22.60;99.90;;;;;;5042121;28;20053;-92
2023/06/25 09:42:56;;;;;;;7.13;4.47;;;22.70;99.90;;;;;;5042201;28;20419;-91
2023/06/25 09:45:22;;;;;;;7.22;4.75;;;22.70;99.90;;;;;;5042193;28;20414;-92
2023/06/25 09:47:50;;;;;;;7.43;4.53;;;22.70;99.90;;;;;;5040045;28;20557;-92
2023/06/25 09:50:23;;;;;;;6.13;4.53;;;22.70;99.90;;;;;;5039550;28;20036;-92
2023/06/25 09:52:57;;;;;;;9.93;4.65;;;22.80;99.90;;;;;;5027219;28;20032;-92
2023/06/25 09:55:25;;;;;;;5.20;4.45;;;22.80;99.90;;;;;;5020096;28;20033;-91
2023/06/25 09:57:52;;;;;;;6.50;4.72;;;22.80;99.90;;;;;;5045025;28;20043;-91
2023/06/25 10:00:19;;;;;;;6.68;4.50;;;22.90;99.90;;;;;;5043312;28;20037;-90
2023/06/25 10:02:45;;;;;;;6.55;4.47;;;23.10;99.90;;;;;;5043064;28;20032;-90
2023/06/25 10:05:11;;;;;;;7.93;5.00;;;23.20;99.90;;;;;;5042589;28;20123;-90
2023/06/25 10:07:37;;;;;;;6.20;4.70;;;23.30;99.90;;;;;;5039690;28;20037;-90
2023/06/25 10:10:03;;;;;;;8.00;4.53;;;23.40;99.90;;;;;;5034314;28;20124;-89
2023/06/25 10:12:38;;;;;;;4.28;3.72;;;23.40;99.90;;;;;;5042803;28;20116;-96
2023/06/25 10:15:05;;;;;;;6.38;4.07;;;23.30;99.90;;;;;;5037278;28;20128;-94
2023/06/25 10:17:31;;;;;;;5.30;4.50;;;23.30;99.90;;;;;;5039645;28;20033;-92
2023/06/25 10:19:59;;;;;;;7.60;5.20;;;23.30;99.90;;;;;;5028391;28;20550;-93
2023/06/25 10:22:27;;;;;;;4.78;4.13;;;23.20;99.90;;;;;;5038984;28;20021;-93
2023/06/25 10:25:45;;;;;;;8.15;4.50;;;23.20;99.90;;;;;;5043422;28;20037;-94
2023/06/25 10:28:13;;;;;;;5.47;4.20;;;23.10;99.90;;;;;;5042753;28;20116;-93
2023/06/25 10:31:00;;;;;;;6.88;4.60;;;23.10;99.90;;;;;;5047502;28;20040;-92
2023/06/25 10:33:30;;;;;;;6.95;4.32;;;23.00;99.90;;;;;;5043316;28;20416;-93
2023/06/25 10:35:57;;;;;;;5.55;4.50;;;23.10;99.90;;;;;;5039486;28;20032;-92
2023/06/25 10:38:23;;;;;;;4.43;3.90;;;23.10;99.90;;;;;;5028861;28;20028;-92
2023/06/25 10:40:49;;;;;;;4.47;4.07;;;23.00;99.90;;;;;;5042771;28;20036;-91
2023/06/25 10:43:19;;;;;;;4.80;4.28;;;23.00;99.90;;;;;;5042096;28;20462;-88
2023/06/25 10:45:55;;;;;;;6.13;4.40;;;22.90;99.90;;;;;;5039137;28;20390;-89
2023/06/25 10:48:22;;;;;;;9.63;4.50;;;22.90;99.90;;;;;;5043113;28;20025;-87
2023/06/25 10:50:48;;;;;;;6.20;4.60;;;23.00;99.90;;;;;;5040380;28;20037;-91
2023/06/25 10:53:17;;;;;;;6.60;3.92;;;23.10;99.90;;;;;;5031953;28;20036;-90
2023/06/25 10:55:44;;;;;;;6.05;4.30;;;23.10;99.90;;;;;;5041089;28;20222;-91
2023/06/25 10:58:09;;;;;;;7.97;5.07;;;23.10;99.90;;;;;;5044790;28;20493;-93
2023/06/25 11:00:35;;;;;;;4.95;4.07;;;23.20;99.90;;;;;;5044774;28;20055;-96
2023/06/25 11:03:01;;;;;;;7.57;4.38;;;23.10;99.90;;;;;;5035204;28;20139;-95
2023/06/25 11:05:41;;;;;;;6.90;4.30;;;23.20;99.90;;;;;;5039461;28;20252;-94
2023/06/25 11:08:10;;;;;;;5.68;4.55;;;23.20;99.90;;;;;;5037303;28;20052;-92
2023/06/25 11:10:37;;;;;;;7.10;4.05;;;23.20;99.90;;;;;;5044218;28;20028;-88
2023/06/25 11:13:04;;;;;;;6.82;4.45;;;23.20;99.90;;;;;;5035070;28;20094;-91
2023/06/25 11:15:33;;;;;;;6.88;4.20;;;23.30;99.90;;;;;;5035791;28;20424;-90
2023/06/25 11:17:59;;;;;;;6.13;4.07;;;23.30;99.90;;;;;;5039786;28;20239;-91
2023/06/25 11:20:26;;;;;;;4.72;4.07;;;23.50;99.90;;;;;;5036089;28;20505;-88
2023/06/25 11:22:55;;;;;;;6.55;3.63;;;23.80;99.90;;;;;;5035186;28;20063;-89
2023/06/25 11:25:21;;;;;;;6.18;3.72;;;23.90;99.90;;;;;;5046587;28;20094;-89
2023/06/25 11:27:48;;;;;;;5.18;4.43;;;24.00;99.90;;;;;;5040754;28;20503;-88
2023/06/25 11:30:14;;;;;;;4.97;4.43;;;24.10;99.90;;;;;;5046045;28;20068;-88
2023/06/25 11:32:42;;;;;;;5.50;4.32;;;24.10;99.90;;;;;;5039219;28;20030;-90
2023/06/25 11:35:13;;;;;;;5.60;4.93;;;24.20;99.90;;;;;;5033739;28;20036;-90
2023/06/25 11:37:46;;;;;;;4.60;4.07;;;24.20;99.90;;;;;;5028702;28;20118;-92
2023/06/25 11:40:25;;;;;;;6.78;4.25;;;24.40;99.90;;;;;;5037667;28;20417;-89
2023/06/25 11:42:52;;;;;;;4.45;3.47;;;24.70;99.90;;;;;;5036302;28;20470;-89
2023/06/25 11:45:19;;;;;;;4.30;3.72;;;24.90;99.90;;;;;;5034036;28;20045;-89
2023/06/25 11:47:53;;;;;;;4.32;3.88;;;24.90;99.90;;;;;;5037529;28;20040;-91
2023/06/25 11:50:26;;;;;;;7.60;4.20;;;25.00;99.90;;;;;;5041515;28;20068;-95
2023/06/25 11:52:53;;;;;;;4.10;3.70;;;25.00;99.90;;;;;;5034435;28;20040;-90
2023/06/25 11:55:21;;;;;;;4.75;3.83;;;25.10;99.90;;;;;;5040166;28;20025;-90
2023/06/25 11:57:47;;;;;;;6.72;4.03;;;25.10;99.90;;;;;;5033108;28;20025;-89
2023/06/25 12:00:13;;;;;;;7.45;3.88;;;25.10;99.90;;;;;;5035329;28;20174;-90
2023/06/25 12:02:38;;;;;;;5.05;3.28;;;25.10;99.90;;;;;;5043654;28;20033;-92
2023/06/25 12:05:04;;;;;;;6.05;3.85;;;25.00;99.90;;;;;;5043704;28;20497;-91
2023/06/25 12:07:30;;;;;;;3.80;3.35;;;25.00;99.90;;;;;;5030412;28;20052;-91
2023/06/25 12:09:56;;;;;;;7.68;3.58;;;24.90;99.90;;;;;;5043210;28;20462;-92
2023/06/25 12:12:21;;;;;;;3.95;3.50;;;24.90;99.90;;;;;;5034449;28;20079;-90
2023/06/25 12:14:47;;;;;;;5.95;3.80;;;24.90;99.90;;;;;;5040684;28;20033;-89
2023/06/25 12:17:14;;;;;;;4.13;3.72;;;24.80;99.90;;;;;;5042189;28;20481;-88
2023/06/25 12:19:39;;;;;;;4.43;3.08;;;24.90;99.90;;;;;;5031898;28;20068;-90
2023/06/25 12:22:05;;;;;;;5.32;3.70;;;24.90;99.90;;;;;;5035061;28;20026;-91
2023/06/25 12:24:31;;;;;;;4.43;3.80;;;24.90;99.90;;;;;;5016430;28;20041;-91
2023/06/25 12:26:57;;;;;;;5.65;3.58;;;24.80;99.90;;;;;;5030143;28;20036;-90
2023/06/25 12:29:23;;;;;;;6.28;3.28;;;24.80;99.90;;;;;;5036666;28;20442;-92
2023/06/25 12:31:49;;;;;;;11.02;4.00;;;24.80;99.90;;;;;;5039078;28;20050;-91
2023/06/25 12:34:14;;;;;;;4.85;3.83;;;24.70;99.90;;;;;;5035252;28;20026;-91
2023/06/25 12:36:40;;;;;;;5.68;3.75;;;24.70;99.90;;;;;;5035119;28;20587;-93
2023/06/25 12:39:12;;;;;;;5.18;3.78;;;24.70;99.90;;;;;;5042853;28;20047;-92
2023/06/25 12:41:37;;;;;;;4.15;3.72;;;24.70;99.90;;;;;;5041060;28;20103;-90
2023/06/25 12:44:03;;;;;;;6.03;4.00;;;24.60;99.90;;;;;;5036791;28;20033;-91